Time;durP1;ratioP1;P1;durP2;ratioP2;P2;SDS_P1;SDS_P2;PMS_P1;PMS_P2;Temp;Humidity;BMP_temperature;BMP_pressure;BME280_temperature;BME280_humidity;BME280_pressure;Samples;Min_cycle;Max_cycle;Signal;HPM_P1;HPM_P2
2022/10/10 00:00:39;;;;;;;5.6;3.5;;;;;;;;;;;;;
2022/10/10 00:03:06;;;;;;;4.5;3.1;;;;;;;;;;;;;
2022/10/10 00:05:31;;;;;;;5.7;2.5;;;;;;;;;;;;;
2022/10/10 00:07:56;;;;;;;4.5;3.1;;;;;;;;;;;;;
2022/10/10 00:10:22;;;;;;;4.1;2.9;;;;;;;;;;;;;
2022/10/10 00:12:47;;;;;;;4.6;2.5;;;;;;;;;;;;;
2022/10/10 00:15:12;;;;;;;5.5;2.7;;;;;;;;;;;;;
2022/10/10 00:17:37;;;;;;;4.6;3.1;;;;;;;;;;;;;
2022/10/10 00:20:02;;;;;;;6.1;3;;;;;;;;;;;;;
2022/10/10 00:22:27;;;;;;;6.1;2.7;;;;;;;;;;;;;
2022/10/10 00:24:53;;;;;;;4.2;3.1;;;;;;;;;;;;;
2022/10/10 00:27:18;;;;;;;4.1;3;;;;;;;;;;;;;
2022/10/10 00:29:44;;;;;;;3.7;2.9;;;;;;;;;;;;;
2022/10/10 00:32:09;;;;;;;6.1;3.1;;;;;;;;;;;;;
2022/10/10 00:34:35;;;;;;;4.5;3.2;;;;;;;;;;;;;
2022/10/10 00:37:00;;;;;;;5.4;3.1;;;;;;;;;;;;;
2022/10/10 00:39:26;;;;;;;5.4;3.3;;;;;;;;;;;;;
2022/10/10 00:41:51;;;;;;;5;3;;;;;;;;;;;;;
2022/10/10 00:44:18;;;;;;;5.6;2.9;;;;;;;;;;;;;
2022/10/10 00:46:43;;;;;;;4.2;2.5;;;;;;;;;;;;;
2022/10/10 00:49:09;;;;;;;4.5;2.8;;;;;;;;;;;;;
2022/10/10 00:51:54;;;;;;;4.8;2.9;;;;;;;;;;;;;
2022/10/10 00:54:21;;;;;;;5.3;2.9;;;;;;;;;;;;;
2022/10/10 00:56:46;;;;;;;4.8;3;;;;;;;;;;;;;
2022/10/10 00:59:11;;;;;;;6.6;3.3;;;;;;;;;;;;;
2022/10/10 01:01:36;;;;;;;5.1;2.8;;;;;;;;;;;;;
2022/10/10 01:04:03;;;;;;;7.2;3.1;;;;;;;;;;;;;
2022/10/10 01:06:28;;;;;;;4.1;3.1;;;;;;;;;;;;;
2022/10/10 01:08:53;;;;;;;4.7;2.9;;;;;;;;;;;;;
2022/10/10 01:11:18;;;;;;;4.1;2.9;;;;;;;;;;;;;
2022/10/10 01:13:43;;;;;;;7.6;3.2;;;;;;;;;;;;;
2022/10/10 01:16:08;;;;;;;5.5;3.5;;;;;;;;;;;;;
2022/10/10 01:18:33;;;;;;;5.6;3;;;;;;;;;;;;;
2022/10/10 01:20:59;;;;;;;5;3;;;;;;;;;;;;;
2022/10/10 01:23:25;;;;;;;4.8;2.7;;;;;;;;;;;;;
2022/10/10 01:25:58;;;;;;;5.8;3;;;;;;;;;;;;;
2022/10/10 01:28:20;;;;;;;5.2;3;;;;;;;;;;;;;
2022/10/10 01:30:46;;;;;;;4.4;3;;;;;;;;;;;;;
2022/10/10 01:33:11;;;;;;;4.5;2.9;;;;;;;;;;;;;
2022/10/10 01:35:36;;;;;;;5.3;2.9;;;;;;;;;;;;;
2022/10/10 01:38:01;;;;;;;3.9;2.5;;;;;;;;;;;;;
2022/10/10 01:40:28;;;;;;;5.7;2.9;;;;;;;;;;;;;
2022/10/10 01:42:53;;;;;;;5.4;2.8;;;;;;;;;;;;;
2022/10/10 01:45:19;;;;;;;5.1;3.3;;;;;;;;;;;;;
2022/10/10 01:47:44;;;;;;;4.7;2.9;;;;;;;;;;;;;
2022/10/10 01:50:12;;;;;;;11.1;4;;;;;;;;;;;;;
2022/10/10 01:52:37;;;;;;;5.9;2.9;;;;;;;;;;;;;
2022/10/10 01:55:02;;;;;;;8;3.2;;;;;;;;;;;;;
2022/10/10 01:57:29;;;;;;;6.9;3.5;;;;;;;;;;;;;
2022/10/10 01:59:54;;;;;;;5.5;2.9;;;;;;;;;;;;;
2022/10/10 02:02:19;;;;;;;5.6;2.8;;;;;;;;;;;;;
2022/10/10 02:04:45;;;;;;;6.5;3.4;;;;;;;;;;;;;
2022/10/10 02:07:10;;;;;;;6.4;2.8;;;;;;;;;;;;;
2022/10/10 02:09:35;;;;;;;6.3;2.8;;;;;;;;;;;;;
2022/10/10 02:12:00;;;;;;;4.8;2.1;;;;;;;;;;;;;
2022/10/10 02:14:25;;;;;;;5.4;2.8;;;;;;;;;;;;;
2022/10/10 02:16:50;;;;;;;4.2;2.6;;;;;;;;;;;;;
2022/10/10 02:19:15;;;;;;;3.7;2.3;;;;;;;;;;;;;
2022/10/10 02:21:40;;;;;;;3.6;2.5;;;;;;;;;;;;;
2022/10/10 02:24:05;;;;;;;5.4;2.7;;;;;;;;;;;;;
2022/10/10 02:26:31;;;;;;;6.3;3.1;;;;;;;;;;;;;
2022/10/10 02:28:56;;;;;;;5.3;2.9;;;;;;;;;;;;;
2022/10/10 02:31:21;;;;;;;4.9;2.8;;;;;;;;;;;;;
2022/10/10 02:33:46;;;;;;;5.3;2.6;;;;;;;;;;;;;
2022/10/10 02:36:11;;;;;;;4.7;2.7;;;;;;;;;;;;;
2022/10/10 02:38:36;;;;;;;6.1;2.4;;;;;;;;;;;;;
2022/10/10 02:41:03;;;;;;;5;2.6;;;;;;;;;;;;;
2022/10/10 02:43:26;;;;;;;5.2;2.5;;;;;;;;;;;;;
2022/10/10 02:45:52;;;;;;;5.2;2.9;;;;;;;;;;;;;
2022/10/10 02:48:17;;;;;;;6.9;2.2;;;;;;;;;;;;;
2022/10/10 02:50:42;;;;;;;3.4;2.2;;;;;;;;;;;;;
2022/10/10 02:53:09;;;;;;;3.8;2.2;;;;;;;;;;;;;
2022/10/10 02:55:34;;;;;;;4.5;2.6;;;;;;;;;;;;;
2022/10/10 02:57:59;;;;;;;4.9;2.5;;;;;;;;;;;;;
2022/10/10 03:00:24;;;;;;;4.6;2.7;;;;;;;;;;;;;
2022/10/10 03:02:52;;;;;;;4;2.5;;;;;;;;;;;;;
2022/10/10 03:05:17;;;;;;;5.2;2.7;;;;;;;;;;;;;
2022/10/10 03:07:42;;;;;;;7.2;3.5;;;;;;;;;;;;;
2022/10/10 03:10:10;;;;;;;5.2;2.8;;;;;;;;;;;;;
2022/10/10 03:15:00;;;;;;;4.6;2.6;;;;;;;;;;;;;
2022/10/10 03:17:26;;;;;;;5.4;2.7;;;;;;;;;;;;;
2022/10/10 03:19:51;;;;;;;7.9;2.7;;;;;;;;;;;;;
2022/10/10 03:22:16;;;;;;;3.7;2.5;;;;;;;;;;;;;
2022/10/10 03:24:41;;;;;;;4.6;2.7;;;;;;;;;;;;;
2022/10/10 03:27:06;;;;;;;6.8;3;;;;;;;;;;;;;
2022/10/10 03:29:31;;;;;;;8.1;3.3;;;;;;;;;;;;;
2022/10/10 03:31:57;;;;;;;4.9;2.7;;;;;;;;;;;;;
2022/10/10 03:34:21;;;;;;;5.7;2.9;;;;;;;;;;;;;
2022/10/10 03:36:48;;;;;;;7;3.2;;;;;;;;;;;;;
2022/10/10 03:39:13;;;;;;;4.8;2.7;;;;;;;;;;;;;
2022/10/10 03:41:38;;;;;;;4.2;2.8;;;;;;;;;;;;;
2022/10/10 03:44:04;;;;;;;8;3.1;;;;;;;;;;;;;
2022/10/10 03:46:41;;;;;;;6.7;3.3;;;;;;;;;;;;;
2022/10/10 03:51:56;;;;;;;6.9;3.5;;;;;;;;;;;;;
2022/10/10 03:54:21;;;;;;;8.3;4.4;;;;;;;;;;;;;
2022/10/10 03:56:46;;;;;;;10.3;4.5;;;;;;;;;;;;;
2022/10/10 03:59:12;;;;;;;9.2;4.2;;;;;;;;;;;;;
2022/10/10 04:02:39;;;;;;;7.9;4;;;;;;;10.18;97.04785;939.3092;;;;
2022/10/10 04:08:35;;;;;;;6.2;3.3;;;;;;;9.96;98.96094;939.2886;;;;
2022/10/10 04:11:00;;;;;;;7;3.1;;;;;;;10.13;98.30371;939.2808;;;;
2022/10/10 04:13:27;;;;;;;3.7;2.8;;;;;;;10.11;98.04883;939.2415;;;;
2022/10/10 04:15:59;;;;;;;5.5;3.3;;;;;;;10.12;98.04004;939.2703;;;;
2022/10/10 04:18:25;;;;;;;4.6;3;;;;;;;10.22;97.64063;939.2793;;;;
2022/10/10 04:20:53;;;;;;;6.8;3.2;;;;;;;10.26;97.4541;939.3084;;;;
2022/10/10 04:23:18;;;;;;;4.5;3.2;;;;;;;10.35;96.97461;939.2601;;;;
2022/10/10 04:25:46;;;;;;;4.8;3;;;;;;;10.16;97.46777;939.3035;;;;
2022/10/10 04:34:38;;;;;;;6.7;3.5;;;;;;;9.8;100;939.2258;;;;
2022/10/10 04:37:06;;;;;;;6.5;3.5;;;;;;;9.99;100;939.2819;;;;
2022/10/10 04:39:31;;;;;;;6.5;3.6;;;;;;;10.08;99.5918;939.2776;;;;
2022/10/10 04:42:01;;;;;;;6.8;4.1;;;;;;;9.89;100;939.2725;;;;
2022/10/10 04:44:32;;;;;;;7.2;4.3;;;;;;;9.98;100;939.2531;;;;
2022/10/10 04:47:02;;;;;;;5.7;4.1;;;;;;;10.08;100;939.2285;;;;
2022/10/10 04:49:27;;;;;;;6.8;4;;;;;;;10.17;99.5127;939.294;;;;
2022/10/10 04:51:56;;;;;;;6.7;3.5;;;;;;;10.32;98.47461;939.2224;;;;
2022/10/10 04:54:25;;;;;;;9.3;4.3;;;;;;;10.29;98.39844;939.2205;;;;
2022/10/10 04:56:50;;;;;;;7.6;4;;;;;;;10.25;99.07227;939.1976;;;;
2022/10/10 04:59:18;;;;;;;7.1;4.4;;;;;;;10.38;98.30469;939.2151;;;;
2022/10/10 05:01:43;;;;;;;7.8;4.9;;;;;;;10.46;97.63574;939.2664;;;;
2022/10/10 05:04:13;;;;;;;9.4;4.8;;;;;;;10.49;97.26758;939.2899;;;;
2022/10/10 05:06:42;;;;;;;7.6;5.1;;;;;;;10.53;97.07031;939.2823;;;;
2022/10/10 05:09:07;;;;;;;10.1;4.9;;;;;;;10.54;96.78711;939.2188;;;;
2022/10/10 05:11:33;;;;;;;9.7;4.5;;;;;;;10.54;96.78711;939.2307;;;;
2022/10/10 05:13:58;;;;;;;9.3;4.5;;;;;;;10.49;97.03906;939.313;;;;
2022/10/10 05:16:23;;;;;;;10.4;4.5;;;;;;;10.32;98.11914;939.2916;;;;
2022/10/10 05:22:34;;;;;;;13.9;6.3;;;;;;;10.36;98.15039;939.277;;;;
2022/10/10 05:25:02;;;;;;;12.3;6.3;;;;;;;10.27;99.46484;939.3506;;;;
2022/10/10 05:27:27;;;;;;;10.5;6.2;;;;;;;10.36;99.13184;939.3447;;;;
2022/10/10 05:29:56;;;;;;;14.9;7.1;;;;;;;10.35;99.23438;939.2673;;;;
2022/10/10 05:32:20;;;;;;;11.8;7.4;;;;;;;10.45;98.90332;939.2911;;;;
2022/10/10 05:34:50;;;;;;;15.6;9;;;;;;;10.42;98.81543;939.3544;;;;
2022/10/10 05:37:19;;;;;;;16;9;;;;;;;10.51;98.51563;939.3943;;;;
2022/10/10 05:39:44;;;;;;;15.9;8.9;;;;;;;10.54;98.01953;939.4417;;;;
2022/10/10 05:42:10;;;;;;;14.7;8.5;;;;;;;10.45;98.55859;939.4367;;;;
2022/10/10 05:44:37;;;;;;;10.6;7;;;;;;;10.45;98.77539;939.4766;;;;
2022/10/10 05:47:03;;;;;;;12.9;6.4;;;;;;;10.64;98.17969;939.4758;;;;
2022/10/10 05:49:27;;;;;;;12;6;;;;;;;10.5;98.29688;939.4094;;;;
2022/10/10 05:51:56;;;;;;;12.1;5.3;;;;;;;10.36;99.61328;939.5189;;;;
2022/10/10 05:54:21;;;;;;;12.4;5.6;;;;;;;10.2;100;939.4941;;;;
2022/10/10 05:56:48;;;;;;;8.4;5.3;;;;;;;10.34;100;939.525;;;;
2022/10/10 06:01:42;;;;;;;9.5;6.2;;;;;;;10.55;99.82813;939.5955;;;;
2022/10/10 06:04:07;;;;;;;9.9;6.6;;;;;;;10.67;98.90723;939.6107;;;;
2022/10/10 06:06:33;;;;;;;12.5;5.1;;;;;;;10.66;98.96191;939.6688;;;;
2022/10/10 06:09:02;;;;;;;7.5;4.5;;;;;;;10.64;99.49316;939.6653;;;;
2022/10/10 06:11:28;;;;;;;7.2;3.9;;;;;;;10.73;99.63867;939.6487;;;;
2022/10/10 06:14:13;;;;;;;7.8;4.1;;;;;;;10.77;99.19238;939.6325;;;;
2022/10/10 06:16:38;;;;;;;9.3;4.6;;;;;;;10.72;99.29395;939.5961;;;;
2022/10/10 06:19:09;;;;;;;6;4.3;;;;;;;10.84;98.71777;939.6821;;;;
2022/10/10 06:21:34;;;;;;;7.6;3.9;;;;;;;10.94;99.81445;939.6314;;;;
2022/10/10 06:24:01;;;;;;;8.4;4.1;;;;;;;10.98;98.86328;939.7106;;;;
2022/10/10 06:26:26;;;;;;;11.3;4;;;;;;;11.04;98.33984;939.7505;;;;
2022/10/10 06:28:55;;;;;;;6.6;3.5;;;;;;;11.09;97.89551;939.7606;;;;
2022/10/10 06:31:23;;;;;;;6.3;4.6;;;;;;;11.15;97.71289;939.7285;;;;
2022/10/10 06:33:48;;;;;;;9.1;5.1;;;;;;;11.22;97.55762;939.7629;;;;
2022/10/10 06:36:15;;;;;;;13.7;6.3;;;;;;;11.38;97.4209;939.6894;;;;
2022/10/10 06:38:41;;;;;;;10.6;6.6;;;;;;;11.38;97.34082;939.7531;;;;
2022/10/10 06:41:10;;;;;;;7.4;4.8;;;;;;;11.56;96.67188;939.7183;;;;
2022/10/10 06:46:16;;;;;;;7;3.8;;;;;;;11.74;95.56738;939.7869;;;;
2022/10/10 06:49:16;;;;;;;10.6;3.8;;;;;;;11.84;95.25879;939.6303;;;;
2022/10/10 06:51:45;;;;;;;6.7;3.5;;;;;;;11.84;94.93652;939.7507;;;;
2022/10/10 06:54:10;;;;;;;7.8;3.6;;;;;;;12.01;94.54004;939.8239;;;;
2022/10/10 06:56:35;;;;;;;8.7;3.9;;;;;;;11.94;93.99805;939.7874;;;;
2022/10/10 06:59:01;;;;;;;9.9;4.4;;;;;;;11.92;94.72461;939.7944;;;;
2022/10/10 07:01:26;;;;;;;8.5;4.3;;;;;;;11.69;95.5459;939.8599;;;;
2022/10/10 07:03:57;;;;;;;10.9;5.9;;;;;;;11.76;98.0332;939.8684;;;;
2022/10/10 07:06:25;;;;;;;12;6.3;;;;;;;11.89;95.64648;939.8549;;;;
2022/10/10 07:08:50;;;;;;;12;5.2;;;;;;;11.91;95.68555;939.8406;;;;
2022/10/10 07:11:19;;;;;;;8.7;4.7;;;;;;;12.12;95.12402;939.8398;;;;
2022/10/10 07:13:52;;;;;;;9.5;4.7;;;;;;;12.22;94.5625;939.887;;;;
2022/10/10 07:16:15;;;;;;;7.8;4.2;;;;;;;12.47;93.92773;939.8956;;;;
2022/10/10 07:18:42;;;;;;;9.8;4.1;;;;;;;12.64;92.96875;939.9319;;;;
2022/10/10 07:21:07;;;;;;;7.9;4.2;;;;;;;12.65;92.33789;939.9662;;;;
2022/10/10 07:23:35;;;;;;;9.9;4.5;;;;;;;12.39;93.69238;939.9381;;;;
2022/10/10 07:25:58;;;;;;;7.4;4.1;;;;;;;12.33;94.09375;940.0105;;;;
2022/10/10 07:28:26;;;;;;;7.2;3.7;;;;;;;12.39;94.0957;940.0028;;;;
2022/10/10 07:30:51;;;;;;;6.8;3.2;;;;;;;12.6;93.33789;939.9817;;;;
2022/10/10 07:33:20;;;;;;;4.9;3;;;;;;;12.89;93.1582;940.0354;;;;
2022/10/10 07:35:45;;;;;;;6.4;3.1;;;;;;;12.99;90.76855;940.0573;;;;
2022/10/10 07:38:11;;;;;;;7;2.9;;;;;;;13.08;89.90332;940.041;;;;
2022/10/10 07:40:36;;;;;;;6.4;3.4;;;;;;;13;89.67969;940.0789;;;;
2022/10/10 07:43:07;;;;;;;6.8;2.9;;;;;;;13.05;89.9873;940.132;;;;
2022/10/10 07:45:37;;;;;;;7.1;3.4;;;;;;;13.32;89.91895;940.1821;;;;
2022/10/10 07:48:01;;;;;;;6.3;3.5;;;;;;;13.57;88.84277;940.1531;;;;
2022/10/10 07:50:30;;;;;;;7.2;4.3;;;;;;;13.78;87.81543;940.1608;;;;
2022/10/10 07:52:55;;;;;;;8.4;3.9;;;;;;;13.94;87.71191;940.1458;;;;
2022/10/10 07:55:21;;;;;;;6;3.4;;;;;;;14.18;86.83594;940.065;;;;
2022/10/10 07:57:46;;;;;;;9;3.3;;;;;;;14.26;85.62012;940.1692;;;;
2022/10/10 08:00:14;;;;;;;5.9;3.9;;;;;;;14.28;84.92285;940.1508;;;;
2022/10/10 08:02:39;;;;;;;5.4;3.5;;;;;;;14.3;83.26758;940.1564;;;;
2022/10/10 08:05:12;;;;;;;9.2;3.8;;;;;;;14.33;83.57227;940.125;;;;
2022/10/10 08:07:37;;;;;;;4.7;3.3;;;;;;;14.56;83.42188;940.1595;;;;
2022/10/10 08:10:03;;;;;;;5.5;3.5;;;;;;;14.79;82.59961;940.1438;;;;
2022/10/10 08:12:28;;;;;;;8.9;4;;;;;;;14.94;82.96387;940.1981;;;;
2022/10/10 08:14:58;;;;;;;7.9;3.6;;;;;;;15.08;83.00098;940.1721;;;;
2022/10/10 08:17:22;;;;;;;10.5;3.6;;;;;;;15.24;82.58105;940.2261;;;;
2022/10/10 08:19:50;;;;;;;11.5;4.3;;;;;;;15.35;81.9668;940.2559;;;;
2022/10/10 08:22:15;;;;;;;11.3;4.3;;;;;;;15.41;81.20508;940.274;;;;
2022/10/10 08:24:42;;;;;;;6.9;3.8;;;;;;;15.35;81.29688;940.223;;;;
2022/10/10 08:27:07;;;;;;;8.6;3.4;;;;;;;15.11;81.7959;940.1959;;;;
2022/10/10 08:29:35;;;;;;;8.2;3.6;;;;;;;15;82.97363;940.27;;;;
2022/10/10 08:32:00;;;;;;;5.6;3.1;;;;;;;15.22;82.7168;940.2664;;;;
2022/10/10 08:34:25;;;;;;;8.4;4;;;;;;;15.27;81.91699;940.2042;;;;
2022/10/10 08:36:50;;;;;;;7.6;4.1;;;;;;;15.39;82.18359;940.2614;;;;
2022/10/10 08:39:22;;;;;;;8.4;4.8;;;;;;;15.44;81.89355;940.2581;;;;
2022/10/10 08:41:51;;;;;;;8.2;4.3;;;;;;;15.67;79.38184;940.2251;;;;
2022/10/10 08:44:15;;;;;;;9.4;4.9;;;;;;;15.8;79.5918;940.1896;;;;
2022/10/10 08:46:43;;;;;;;8.7;4.5;;;;;;;15.78;78.89355;940.2251;;;;
2022/10/10 08:49:12;;;;;;;7.2;4.5;;;;;;;15.78;79.72559;940.2131;;;;
2022/10/10 08:51:35;;;;;;;7.5;4;;;;;;;15.92;79.79785;940.2444;;;;
2022/10/10 08:54:01;;;;;;;6.2;3.1;;;;;;;15.98;80.20117;940.1733;;;;
2022/10/10 08:56:32;;;;;;;3.8;2.9;;;;;;;16.05;79.41602;940.2244;;;;
2022/10/10 08:58:57;;;;;;;7.1;3.5;;;;;;;16.17;79.36621;940.225;;;;
2022/10/10 09:01:25;;;;;;;6.4;3.1;;;;;;;16.28;77.91895;940.18;;;;
2022/10/10 09:03:50;;;;;;;5.1;3.2;;;;;;;16.26;77.33691;940.1714;;;;
2022/10/10 09:06:15;;;;;;;5.1;2.5;;;;;;;16.26;75.69434;940.1866;;;;
2022/10/10 09:08:43;;;;;;;6.2;2.7;;;;;;;16.28;75.44238;940.1301;;;;
2022/10/10 09:11:09;;;;;;;11.2;3.5;;;;;;;16.32;74.40918;940.1892;;;;
2022/10/10 09:13:38;;;;;;;6.7;2.6;;;;;;;16.5;73.66406;940.1058;;;;
2022/10/10 09:16:07;;;;;;;4.4;3;;;;;;;16.58;76.13086;940.0881;;;;
2022/10/10 09:18:35;;;;;;;4.4;2.7;;;;;;;16.74;76.57715;940.1183;;;;
2022/10/10 09:21:00;;;;;;;4;2.8;;;;;;;16.81;74.19238;940.1302;;;;
2022/10/10 09:23:25;;;;;;;4.8;2.7;;;;;;;16.89;74.67969;940.1264;;;;
2022/10/10 09:25:51;;;;;;;8.5;2.8;;;;;;;17.05;74.11621;940.1014;;;;
2022/10/10 09:28:16;;;;;;;7.9;3;;;;;;;17.18;72.03906;940.1167;;;;
2022/10/10 09:30:42;;;;;;;6.4;3.2;;;;;;;17.37;71.33984;940.1121;;;;
2022/10/10 09:33:07;;;;;;;4.3;3;;;;;;;17.56;69.50195;940.0251;;;;
2022/10/10 09:35:35;;;;;;;4.8;2.4;;;;;;;17.62;65.76367;940.0744;;;;
2022/10/10 09:38:00;;;;;;;5.8;2.4;;;;;;;17.68;66.62012;940.1028;;;;
2022/10/10 09:40:25;;;;;;;5.9;2.2;;;;;;;17.74;65.82813;940.0859;;;;
2022/10/10 09:42:54;;;;;;;4.7;2.4;;;;;;;17.83;66.78027;940.0736;;;;
2022/10/10 09:45:19;;;;;;;8.2;2.8;;;;;;;17.9;66.21191;940.0795;;;;
2022/10/10 09:47:48;;;;;;;5.2;2.3;;;;;;;17.99;66.16797;940.0339;;;;
2022/10/10 09:50:13;;;;;;;5.8;2.5;;;;;;;17.91;64.27441;940.0472;;;;
2022/10/10 09:52:42;;;;;;;4.9;2.6;;;;;;;17.96;64.89746;940.0553;;;;
2022/10/10 09:55:07;;;;;;;6.8;4;;;;;;;17.94;66.20605;940.0903;;;;
2022/10/10 09:57:34;;;;;;;7.7;3.5;;;;;;;18.08;66.12305;940.0609;;;;
2022/10/10 10:00:01;;;;;;;8;4.4;;;;;;;18.11;65.84668;940.0935;;;;
2022/10/10 10:02:29;;;;;;;5.7;3.4;;;;;;;18.35;67.12891;940.038;;;;
2022/10/10 10:04:54;;;;;;;7.9;3.8;;;;;;;18.43;66.01172;940.0919;;;;
2022/10/10 10:07:20;;;;;;;6.1;3.6;;;;;;;18.6;65.83008;940.0798;;;;
2022/10/10 10:09:46;;;;;;;10.4;5.3;;;;;;;18.9;66.78027;939.9854;;;;
2022/10/10 10:12:15;;;;;;;15.5;8.8;;;;;;;19.06;63.75586;940.0332;;;;
2022/10/10 10:14:40;;;;;;;12.6;6.6;;;;;;;19.25;64.7041;940.0012;;;;
2022/10/10 10:17:05;;;;;;;6.9;4.8;;;;;;;19.56;65.86621;939.9548;;;;
2022/10/10 10:19:30;;;;;;;6.9;4.1;;;;;;;19.85;63.63672;939.9567;;;;
2022/10/10 10:21:55;;;;;;;9.8;3.9;;;;;;;19.95;61.5625;940.0223;;;;
2022/10/10 10:24:24;;;;;;;7.2;3.6;;;;;;;20.03;60.82715;939.9908;;;;
2022/10/10 10:26:49;;;;;;;6.9;3.4;;;;;;;19.99;59.46582;939.9827;;;;
2022/10/10 10:29:16;;;;;;;6.3;3.2;;;;;;;20.18;59.58594;939.9523;;;;
2022/10/10 10:31:44;;;;;;;7.9;3;;;;;;;20.36;58.78125;939.978;;;;
2022/10/10 10:34:09;;;;;;;7.2;3.7;;;;;;;20.7;59.29395;939.9783;;;;
2022/10/10 10:36:34;;;;;;;6.2;3.8;;;;;;;20.78;57.45801;939.9356;;;;
2022/10/10 10:39:00;;;;;;;9.4;3.8;;;;;;;21.15;57.68164;939.9283;;;;
2022/10/10 10:41:25;;;;;;;5.5;2.8;;;;;;;21.44;55.44922;939.8492;;;;
2022/10/10 10:43:51;;;;;;;6;2.3;;;;;;;21.79;52.7168;939.8161;;;;
2022/10/10 10:46:16;;;;;;;5.5;2.5;;;;;;;21.94;52.19531;939.7997;;;;
2022/10/10 10:48:43;;;;;;;4.3;2;;;;;;;22.33;49.96484;939.7796;;;;
2022/10/10 10:51:09;;;;;;;4.5;2.1;;;;;;;22.5;48.89355;939.7224;;;;
2022/10/10 10:53:34;;;;;;;7.9;2;;;;;;;22.57;48.57227;939.7352;;;;
2022/10/10 10:55:59;;;;;;;6.7;2.2;;;;;;;22.31;49.33105;939.7045;;;;
2022/10/10 10:58:27;;;;;;;3.6;2.1;;;;;;;22.58;48.64355;939.6649;;;;
2022/10/10 11:00:56;;;;;;;5.5;1.8;;;;;;;22.52;46.52441;939.6761;;;;
2022/10/10 11:03:21;;;;;;;4.7;1.9;;;;;;;22.87;44.85938;939.6166;;;;
2022/10/10 11:05:47;;;;;;;3;1.6;;;;;;;23.59;45.37793;939.6172;;;;
2022/10/10 11:08:14;;;;;;;5;2.1;;;;;;;24.25;42.11328;939.6152;;;;
2022/10/10 11:10:39;;;;;;;4.1;1.7;;;;;;;24.59;40.71777;939.5994;;;;
2022/10/10 11:13:04;;;;;;;5.7;2.4;;;;;;;24.84;42.43848;939.5361;;;;
2022/10/10 11:15:35;;;;;;;3.4;1.7;;;;;;;24.71;41.29492;939.4543;;;;
2022/10/10 11:18:00;;;;;;;6.2;1.9;;;;;;;25.12;42.08887;939.4817;;;;
2022/10/10 11:20:26;;;;;;;4;1.7;;;;;;;25.92;40.53223;939.429;;;;
2022/10/10 11:22:51;;;;;;;5.7;2;;;;;;;26.11;39.24707;939.3901;;;;
2022/10/10 11:25:21;;;;;;;3.5;1.9;;;;;;;26.27;39.41504;939.4306;;;;
2022/10/10 11:27:47;;;;;;;5.9;1.8;;;;;;;26.97;36.53809;939.385;;;;
2022/10/10 11:30:16;;;;;;;7.3;2.1;;;;;;;27.19;35.91504;939.3851;;;;
2022/10/10 11:32:42;;;;;;;5.4;1.7;;;;;;;28.63;31.72559;939.3328;;;;
2022/10/10 11:35:06;;;;;;;7;1.9;;;;;;;29.21;33.48047;939.3112;;;;
2022/10/10 11:37:31;;;;;;;3.2;1.5;;;;;;;30;31.2959;939.2537;;;;
2022/10/10 11:40:00;;;;;;;3.2;1.5;;;;;;;29.61;33.08105;939.259;;;;
2022/10/10 11:42:26;;;;;;;3.3;1.6;;;;;;;30.43;30.74023;939.2587;;;;
2022/10/10 11:44:51;;;;;;;3.4;1.3;;;;;;;29.56;33.93555;939.2147;;;;
2022/10/10 11:47:16;;;;;;;2;1;;;;;;;28.07;39.40723;939.2471;;;;
2022/10/10 11:49:41;;;;;;;2;1.2;;;;;;;28.65;35.2832;939.1322;;;;
2022/10/10 11:52:06;;;;;;;3.7;1.2;;;;;;;28.78;36.47168;939.1666;;;;
2022/10/10 11:54:31;;;;;;;3.9;1.1;;;;;;;29.28;34.7959;939.1516;;;;
2022/10/10 11:56:56;;;;;;;5.1;1.1;;;;;;;29.62;34.61914;939.2006;;;;
2022/10/10 11:59:21;;;;;;;2.9;1.2;;;;;;;28.56;37.3457;939.2197;;;;
2022/10/10 12:01:47;;;;;;;1.6;1;;;;;;;29.25;35.90234;939.2104;;;;
2022/10/10 12:04:18;;;;;;;3.5;0.8;;;;;;;29.28;35.89258;939.163;;;;
2022/10/10 12:06:44;;;;;;;1.6;0.7;;;;;;;29.53;36.03125;939.1273;;;;
2022/10/10 12:09:12;;;;;;;1.1;0.6;;;;;;;29.14;36.51172;939.1403;;;;
2022/10/10 12:11:37;;;;;;;0.5;0.5;;;;;;;30.55;33.36523;939.1006;;;;
2022/10/10 12:14:02;;;;;;;1.3;0.6;;;;;;;30.83;33.99512;939.0728;;;;
2022/10/10 12:16:36;;;;;;;0.8;0.7;;;;;;;28.99;36.23828;939.0611;;;;
2022/10/10 12:19:02;;;;;;;1.4;0.7;;;;;;;30.44;34.75488;939.0634;;;;
2022/10/10 12:21:27;;;;;;;2.2;1;;;;;;;31.68;32.22656;939.038;;;;
2022/10/10 12:23:52;;;;;;;4.4;0.7;;;;;;;34.28;28.37695;938.9839;;;;
2022/10/10 12:26:18;;;;;;;1.8;0.6;;;;;;;32.75;30.69434;938.9694;;;;
2022/10/10 12:28:46;;;;;;;3.6;0.8;;;;;;;30.3;35.26855;938.9342;;;;
2022/10/10 12:31:11;;;;;;;0.9;0.7;;;;;;;30.84;34.36621;938.9543;;;;
2022/10/10 12:33:36;;;;;;;5;1.6;;;;;;;33.53;29.76074;938.9812;;;;
2022/10/10 12:36:05;;;;;;;2.6;0.9;;;;;;;33.3;29.70996;938.9445;;;;
2022/10/10 12:38:30;;;;;;;2.2;0.9;;;;;;;33.46;29.09473;938.9554;;;;
2022/10/10 12:40:55;;;;;;;1.4;0.8;;;;;;;34.49;28.12402;938.9158;;;;
2022/10/10 12:43:20;;;;;;;2.6;1;;;;;;;34.59;27.79297;938.9509;;;;
2022/10/10 12:45:45;;;;;;;3.8;1;;;;;;;33.6;28.55078;938.9121;;;;
2022/10/10 12:48:10;;;;;;;1.5;0.9;;;;;;;34.85;27.35059;938.9514;;;;
2022/10/10 12:50:35;;;;;;;2.2;1.4;;;;;;;34.46;28.14648;938.9207;;;;
2022/10/10 12:53:00;;;;;;;2.3;1.3;;;;;;;32.13;32.35449;938.9339;;;;
2022/10/10 12:55:25;;;;;;;2.1;0.9;;;;;;;29.84;34.99414;938.9315;;;;
2022/10/10 12:57:50;;;;;;;1.6;1.1;;;;;;;27.84;38.98438;938.9267;;;;
2022/10/10 13:00:22;;;;;;;3;1.1;;;;;;;26.9;40.01563;938.9902;;;;
2022/10/10 13:02:47;;;;;;;2.4;1.3;;;;;;;25.39;43.88574;938.9137;;;;
2022/10/10 13:05:18;;;;;;;3.9;1;;;;;;;24.64;47.08887;938.9606;;;;
2022/10/10 13:07:43;;;;;;;2.2;1;;;;;;;25.58;45.8291;938.9419;;;;
2022/10/10 13:10:10;;;;;;;2.7;1.3;;;;;;;26.22;44.15527;938.9133;;;;
2022/10/10 13:12:33;;;;;;;3.1;1.3;;;;;;;27.92;40.09473;938.9535;;;;
2022/10/10 13:15:00;;;;;;;2.6;1.3;;;;;;;30.15;35.91309;938.9604;;;;
2022/10/10 13:17:26;;;;;;;2.3;1.1;;;;;;;31.28;33.26367;939.0156;;;;
2022/10/10 13:19:51;;;;;;;2.5;1.1;;;;;;;31.69;31.96387;939.0114;;;;
2022/10/10 13:22:16;;;;;;;3.4;1.2;;;;;;;29.79;35.30078;938.9814;;;;
2022/10/10 13:24:42;;;;;;;4;1;;;;;;;27.45;39.66113;939.0213;;;;
2022/10/10 13:27:07;;;;;;;3.1;1.5;;;;;;;25.75;43.21094;939.0454;;;;
2022/10/10 13:29:32;;;;;;;4.2;1.1;;;;;;;25.43;44.17285;939.0574;;;;
2022/10/10 13:32:01;;;;;;;3.8;1.2;;;;;;;24.77;45.87695;939.094;;;;
2022/10/10 13:34:26;;;;;;;3;1.1;;;;;;;24.46;46.44531;939.1025;;;;
2022/10/10 13:36:55;;;;;;;3.4;1.4;;;;;;;23.6;48.15527;939.1555;;;;
2022/10/10 13:39:20;;;;;;;1.5;1.1;;;;;;;23.37;49.11914;939.1736;;;;
2022/10/10 13:41:50;;;;;;;3.1;1.3;;;;;;;23.02;50.6416;939.2068;;;;
2022/10/10 13:44:15;;;;;;;2.6;1.3;;;;;;;22.57;52.29297;939.1887;;;;
2022/10/10 13:46:40;;;;;;;6;1.3;;;;;;;22.54;52.4541;939.2668;;;;
2022/10/10 13:49:08;;;;;;;3.6;1.5;;;;;;;22.34;53.30957;939.2072;;;;
2022/10/10 13:51:34;;;;;;;2.4;1.3;;;;;;;22.07;54.9541;939.2557;;;;
2022/10/10 13:54:03;;;;;;;2.1;1.3;;;;;;;21.73;55.44922;939.2281;;;;
2022/10/10 13:56:28;;;;;;;3.6;1.4;;;;;;;21.27;57.31152;939.2911;;;;
2022/10/10 13:58:55;;;;;;;5;1.4;;;;;;;21.19;57.6875;939.3002;;;;
2022/10/10 14:01:20;;;;;;;3.2;1.4;;;;;;;21.17;58.24609;939.3954;;;;
2022/10/10 14:03:45;;;;;;;2.1;1.4;;;;;;;20.89;59.40234;939.4025;;;;
2022/10/10 14:06:13;;;;;;;3.2;1.6;;;;;;;20.86;59.61914;939.4561;;;;
2022/10/10 14:08:40;;;;;;;3;1.7;;;;;;;20.77;60.42676;939.4734;;;;
2022/10/10 14:11:05;;;;;;;1.9;1.3;;;;;;;20.63;60.95703;939.4781;;;;
2022/10/10 14:13:35;;;;;;;2.3;1.5;;;;;;;20.49;61.91797;939.4632;;;;
2022/10/10 14:16:00;;;;;;;2.2;1.4;;;;;;;20.49;61.69629;939.4955;;;;
2022/10/10 14:18:30;;;;;;;3.5;1.7;;;;;;;20.49;62.07031;939.515;;;;
2022/10/10 14:20:55;;;;;;;2.5;1.3;;;;;;;20.4;62.76953;939.5483;;;;
2022/10/10 14:23:22;;;;;;;3.8;1.8;;;;;;;20.37;63.02148;939.5192;;;;
2022/10/10 14:25:47;;;;;;;5.8;1.6;;;;;;;20.34;63.55469;939.5095;;;;
2022/10/10 14:28:15;;;;;;;3.6;1.9;;;;;;;20.1;64.57031;939.5275;;;;
2022/10/10 14:30:40;;;;;;;3.8;1.7;;;;;;;20.12;64.60742;939.5521;;;;
2022/10/10 14:33:09;;;;;;;5.3;1.7;;;;;;;20.05;64.99512;939.5917;;;;
2022/10/10 14:35:40;;;;;;;3.6;1.6;;;;;;;20.05;64.77344;939.5869;;;;
2022/10/10 14:38:08;;;;;;;4.8;1.6;;;;;;;19.95;65.37793;939.6174;;;;
2022/10/10 14:40:33;;;;;;;2.7;1.7;;;;;;;19.86;66.0293;939.5839;;;;
2022/10/10 14:43:03;;;;;;;3.1;1.6;;;;;;;19.6;66.84082;939.6188;;;;
2022/10/10 14:45:33;;;;;;;4.4;2;;;;;;;19.71;66.41406;939.6398;;;;
2022/10/10 14:47:58;;;;;;;4.8;1.9;;;;;;;19.72;66.03223;939.68;;;;
2022/10/10 14:50:28;;;;;;;4.4;2;;;;;;;19.8;65.58789;939.7048;;;;
2022/10/10 14:52:53;;;;;;;4.8;1.6;;;;;;;19.87;65.44727;939.7196;;;;
2022/10/10 14:55:18;;;;;;;4.1;2;;;;;;;19.82;65.47559;939.7296;;;;
2022/10/10 14:57:51;;;;;;;3.8;2.3;;;;;;;19.75;65.86133;939.7084;;;;
2022/10/10 15:00:17;;;;;;;3.8;2.8;;;;;;;19.79;65.75977;939.718;;;;
2022/10/10 15:02:43;;;;;;;2.4;1.7;;;;;;;19.84;65.38379;939.7776;;;;
2022/10/10 15:05:09;;;;;;;2.3;1.4;;;;;;;19.81;65.64746;939.7578;;;;
2022/10/10 15:07:40;;;;;;;4.6;1.9;;;;;;;19.73;65.96191;939.801;;;;
2022/10/10 15:10:05;;;;;;;3.8;1.8;;;;;;;19.59;66.02344;939.7222;;;;
2022/10/10 15:12:30;;;;;;;3.3;2;;;;;;;19.58;66.30176;939.7249;;;;
2022/10/10 15:14:55;;;;;;;3.8;2;;;;;;;19.62;66.41211;939.7927;;;;
2022/10/10 15:17:21;;;;;;;3.9;1.7;;;;;;;19.56;66.99707;939.8281;;;;
2022/10/10 15:19:46;;;;;;;6.2;2;;;;;;;19.45;67.7959;939.8617;;;;
2022/10/10 15:22:13;;;;;;;6.3;2.1;;;;;;;19.05;70.14355;939.8665;;;;
2022/10/10 15:24:38;;;;;;;3.4;1.8;;;;;;;19.04;71.36621;939.9731;;;;
2022/10/10 15:27:04;;;;;;;5.6;2.3;;;;;;;19.09;71.89941;939.9777;;;;
2022/10/10 15:29:58;;;;;;;2.7;1.8;;;;;;;19.04;73.00781;940.0975;;;;
2022/10/10 15:32:25;;;;;;;3.9;2;;;;;;;19.03;73.78613;940.1074;;;;
2022/10/10 15:34:50;;;;;;;3.8;2.5;;;;;;;18.97;74.35938;940.0936;;;;
2022/10/10 15:37:15;;;;;;;2.7;1.8;;;;;;;18.95;74.83203;940.0884;;;;
2022/10/10 15:39:43;;;;;;;5.5;2.3;;;;;;;18.89;75.25195;940.126;;;;
2022/10/10 15:42:05;;;;;;;3.2;1.8;;;;;;;18.53;77.68066;940.0891;;;;
2022/10/10 15:44:35;;;;;;;5.4;2.2;;;;;;;18.62;77.20605;940.0801;;;;
2022/10/10 15:47:02;;;;;;;6.5;1.9;;;;;;;18.63;76.65137;940.0984;;;;
2022/10/10 15:49:27;;;;;;;6.5;2;;;;;;;18.58;77.10645;940.1002;;;;
2022/10/10 15:51:53;;;;;;;6.1;2;;;;;;;18.53;77.55273;940.0906;;;;
2022/10/10 15:54:18;;;;;;;5.3;1.8;;;;;;;18.5;76.62793;940.1195;;;;
2022/10/10 15:56:44;;;;;;;4.8;2.2;;;;;;;18.41;76.4834;940.1442;;;;
2022/10/10 15:59:12;;;;;;;4.6;2.6;;;;;;;18.44;75.73242;940.1633;;;;